Historique des mesures à Cassis (13260), France
Quotidien Résumé Mars 7, 2017 Unités:  US    Métrique   Métrique/US
« Précédent (Jour)
Suivant (Jour) »
Quotidien Hebdomadaire Mensuel Annuel Période au choix
  Maximum: Minimum: Moyenne:
Température: 32 °F 47.1 °F 50.4 °F
Point de rosée: 32 °F 31.1 °F 33.8 °F
Humidité: Humidity % 40 % 50 %
Vitesse du vent: WindSpeedKMH mph 4.7 mph 14.8 mph
Rafales: WindSpeedGustKMH mph - -
Vent:- - West
Pression: 0 in 29.9 in -
Précipitations: 0 in    
Historical Graphs
 
 
Mesures pour : Mars 7, 2017
Heure Temperature Point de rosée Pression Vent Vitesse du vent Rafales Humidité Pluie (par heure) Conditions
32 °F 32 °F 0 in Calm     Humidity % 0 in SoftwareType W/m2
00:11 51.3 °F 35.6 °F 29.9 in NW 5.0 mph 47.5 mph 55 % 0 in open2300-1.11 W/m2
01:10 49.8 °F 34.7 °F 29.9 in NNW 20.9 mph 20.9 mph 56 % 0 in open2300-1.11 W/m2
02:11 49.6 °F 35.1 °F 29.9 in NW 16.9 mph 18.0 mph 57 % 0 in open2300-1.11 W/m2
03:10 48.9 °F 35.2 °F 29.9 in NW 5.0 mph 25.3 mph 59 % 0 in open2300-1.11 W/m2
04:11 48.6 °F 35.4 °F 29.9 in WNW 16.9 mph 18.0 mph 60 % 0 in open2300-1.11 W/m2
05:10 48 °F 36 °F 29.9 in NW 10.8 mph 27.0 mph 63 % 0 in open2300-1.11 W/m2
06:11 47.1 °F 35.4 °F 29.9 in NNW 5.0 mph 11.6 mph 64 % 0 in open2300-1.11 W/m2
07:10 47.1 °F 34.9 °F 29.9 in North 12.6 mph 12.6 mph 62 % 0 in open2300-1.11 W/m2
08:11 48 °F 35.6 °F 29.9 in NNW 5.0 mph 17.2 mph 62 % 0 in open2300-1.11 W/m2
09:10 49.1 °F 36.7 °F 29.9 in NNW 7.6 mph 10.1 mph 62 % 0 in open2300-1.11 W/m2
10:11 49.8 °F 36.5 °F 30 in WNW 18.7 mph 25.3 mph 60 % 0 in open2300-1.11 W/m2
11:10 52 °F 35.2 °F 29.9 in WNW 23.3 mph 23.3 mph 53 % 0 in open2300-1.11 W/m2
12:11 53.8 °F 34.5 °F 29.9 in NNW 9.3 mph 38.5 mph 48 % 0 in open2300-1.11 W/m2
13:10 54.3 °F 33.3 °F 29.9 in WNW 29.4 mph 29.4 mph 45 % 0 in open2300-1.11 W/m2
14:11 55.2 °F 31.3 °F 29.9 in North 28.8 mph 28.8 mph 40 % 0 in open2300-1.11 W/m2
15:10 54.3 °F 32.2 °F 29.9 in WNW 32.0 mph 33.8 mph 43 % 0 in open2300-1.11 W/m2
16:11 55.2 °F 32.4 °F 29.9 in NNW 17.7 mph 29.4 mph 42 % 0 in open2300-1.11 W/m2
17:10 54.7 °F 31.8 °F 29.9 in North 11.9 mph 34.1 mph 42 % 0 in open2300-1.11 W/m2
18:11 53.4 °F 31.5 °F 29.9 in West 10.5 mph 18.3 mph 43 % 0 in open2300-1.11 W/m2
19:10 52.5 °F 31.6 °F 29.9 in NNW 30.6 mph 31.7 mph 45 % 0 in open2300-1.11 W/m2
20:11 52 °F 31.3 °F 29.9 in NNW 16.3 mph 29.1 mph 45 % 0 in open2300-1.11 W/m2
21:10 51.3 °F 31.1 °F 29.9 in NNW 7.2 mph 27.7 mph 46 % 0 in open2300-1.11 W/m2
22:11 50.4 °F 31.5 °F 30 in North 4.7 mph 13.0 mph 48 % 0 in open2300-1.11 W/m2
23:10 49.5 °F 32.2 °F 30 in WNW 22.7 mph 22.7 mph 51 % 0 in open2300-1.11 W/m2
Observations météo à CASSIS
WU-History script by Weather Underground - 1 mb